sensor_id;sensor_type;location;lat;lon;timestamp;temperature;humidity
14411;DHT22;7290;50.854;4.354;2022-10-16T00:00:42;15.90;99.90
14411;DHT22;7290;50.854;4.354;2022-10-16T00:03:09;15.80;99.90
14411;DHT22;7290;50.854;4.354;2022-10-16T00:05:39;15.90;99.90
14411;DHT22;7290;50.854;4.354;2022-10-16T00:08:05;15.80;99.90
14411;DHT22;7290;50.854;4.354;2022-10-16T00:10:31;15.80;99.90
14411;DHT22;7290;50.854;4.354;2022-10-16T00:12:59;15.80;99.90
14411;DHT22;7290;50.854;4.354;2022-10-16T00:15:25;15.70;99.90
14411;DHT22;7290;50.854;4.354;2022-10-16T00:17:52;15.60;99.90
14411;DHT22;7290;50.854;4.354;2022-10-16T00:20:18;15.70;99.90
14411;DHT22;7290;50.854;4.354;2022-10-16T00:22:44;15.60;99.90
14411;DHT22;7290;50.854;4.354;2022-10-16T00:25:11;15.60;99.90
14411;DHT22;7290;50.854;4.354;2022-10-16T00:27:37;15.50;99.90
14411;DHT22;7290;50.854;4.354;2022-10-16T00:30:04;15.50;99.90
14411;DHT22;7290;50.854;4.354;2022-10-16T00:32:31;15.50;99.90
14411;DHT22;7290;50.854;4.354;2022-10-16T00:34:58;15.50;99.90
14411;DHT22;7290;50.854;4.354;2022-10-16T00:37:24;15.50;99.90
14411;DHT22;7290;50.854;4.354;2022-10-16T00:39:50;15.50;99.90
14411;DHT22;7290;50.854;4.354;2022-10-16T00:42:17;15.50;99.90
14411;DHT22;7290;50.854;4.354;2022-10-16T00:44:50;15.50;99.90
14411;DHT22;7290;50.854;4.354;2022-10-16T00:47:22;15.40;99.90
14411;DHT22;7290;50.854;4.354;2022-10-16T00:49:53;15.40;99.90
14411;DHT22;7290;50.854;4.354;2022-10-16T00:52:22;15.40;99.90
14411;DHT22;7290;50.854;4.354;2022-10-16T00:54:49;15.40;99.90
14411;DHT22;7290;50.854;4.354;2022-10-16T00:57:15;15.40;99.90
14411;DHT22;7290;50.854;4.354;2022-10-16T00:59:42;15.50;99.90
14411;DHT22;7290;50.854;4.354;2022-10-16T01:02:16;15.40;99.90
14411;DHT22;7290;50.854;4.354;2022-10-16T01:04:44;15.40;99.90
14411;DHT22;7290;50.854;4.354;2022-10-16T01:07:19;15.40;99.90
14411;DHT22;7290;50.854;4.354;2022-10-16T01:09:57;15.30;99.90
14411;DHT22;7290;50.854;4.354;2022-10-16T01:12:38;15.30;99.90
14411;DHT22;7290;50.854;4.354;2022-10-16T01:15:11;15.30;99.90
14411;DHT22;7290;50.854;4.354;2022-10-16T01:17:45;15.40;99.90
14411;DHT22;7290;50.854;4.354;2022-10-16T01:20:19;15.40;99.90
14411;DHT22;7290;50.854;4.354;2022-10-16T01:23:05;15.30;99.90
14411;DHT22;7290;50.854;4.354;2022-10-16T01:25:49;15.30;99.90
14411;DHT22;7290;50.854;4.354;2022-10-16T01:28:19;15.20;99.90
14411;DHT22;7290;50.854;4.354;2022-10-16T01:30:49;15.20;99.90
14411;DHT22;7290;50.854;4.354;2022-10-16T01:33:19;15.20;99.90
14411;DHT22;7290;50.854;4.354;2022-10-16T01:35:50;15.10;99.90
14411;DHT22;7290;50.854;4.354;2022-10-16T01:38:22;15.20;99.90
14411;DHT22;7290;50.854;4.354;2022-10-16T01:40:53;15.30;99.90
14411;DHT22;7290;50.854;4.354;2022-10-16T01:43:27;15.30;99.90
14411;DHT22;7290;50.854;4.354;2022-10-16T01:45:55;15.30;99.90
14411;DHT22;7290;50.854;4.354;2022-10-16T01:48:23;15.30;99.90
14411;DHT22;7290;50.854;4.354;2022-10-16T01:50:54;15.30;99.90
14411;DHT22;7290;50.854;4.354;2022-10-16T01:53:22;15.30;99.90
14411;DHT22;7290;50.854;4.354;2022-10-16T01:55:50;15.30;99.90
14411;DHT22;7290;50.854;4.354;2022-10-16T01:58:18;15.30;99.90
14411;DHT22;7290;50.854;4.354;2022-10-16T02:00:46;15.30;99.90
14411;DHT22;7290;50.854;4.354;2022-10-16T02:03:16;15.20;99.90
14411;DHT22;7290;50.854;4.354;2022-10-16T02:05:47;15.20;99.90
14411;DHT22;7290;50.854;4.354;2022-10-16T02:08:15;15.20;99.90
14411;DHT22;7290;50.854;4.354;2022-10-16T02:10:41;15.20;99.90
14411;DHT22;7290;50.854;4.354;2022-10-16T02:13:12;15.20;99.90
14411;DHT22;7290;50.854;4.354;2022-10-16T02:15:38;15.20;99.90
14411;DHT22;7290;50.854;4.354;2022-10-16T02:18:06;15.10;99.90
14411;DHT22;7290;50.854;4.354;2022-10-16T02:20:38;15.20;99.90
14411;DHT22;7290;50.854;4.354;2022-10-16T02:23:12;15.20;99.90
14411;DHT22;7290;50.854;4.354;2022-10-16T02:25:45;15.20;99.90
14411;DHT22;7290;50.854;4.354;2022-10-16T02:28:17;15.20;99.90
14411;DHT22;7290;50.854;4.354;2022-10-16T02:30:45;15.20;99.90
14411;DHT22;7290;50.854;4.354;2022-10-16T02:33:15;15.10;99.90
14411;DHT22;7290;50.854;4.354;2022-10-16T02:35:43;15.10;99.90
14411;DHT22;7290;50.854;4.354;2022-10-16T02:38:11;15.10;99.90
14411;DHT22;7290;50.854;4.354;2022-10-16T02:40:38;15.10;99.90
14411;DHT22;7290;50.854;4.354;2022-10-16T02:43:05;15.10;99.90
14411;DHT22;7290;50.854;4.354;2022-10-16T02:45:32;15.00;99.90
14411;DHT22;7290;50.854;4.354;2022-10-16T02:47:59;15.10;99.90
14411;DHT22;7290;50.854;4.354;2022-10-16T02:50:25;15.10;99.90
14411;DHT22;7290;50.854;4.354;2022-10-16T02:52:52;15.10;99.90
14411;DHT22;7290;50.854;4.354;2022-10-16T02:55:18;15.10;99.90
14411;DHT22;7290;50.854;4.354;2022-10-16T02:57:44;15.10;99.90
14411;DHT22;7290;50.854;4.354;2022-10-16T03:00:13;15.20;99.90
14411;DHT22;7290;50.854;4.354;2022-10-16T03:02:39;15.20;99.90
14411;DHT22;7290;50.854;4.354;2022-10-16T03:05:06;15.30;99.90
14411;DHT22;7290;50.854;4.354;2022-10-16T03:07:33;15.20;99.90
14411;DHT22;7290;50.854;4.354;2022-10-16T03:09:59;15.20;99.90
14411;DHT22;7290;50.854;4.354;2022-10-16T03:12:26;15.10;99.90
14411;DHT22;7290;50.854;4.354;2022-10-16T03:14:52;15.10;99.90
14411;DHT22;7290;50.854;4.354;2022-10-16T03:17:18;15.10;99.90
14411;DHT22;7290;50.854;4.354;2022-10-16T03:19:45;15.00;99.90
14411;DHT22;7290;50.854;4.354;2022-10-16T03:22:11;15.00;99.90
14411;DHT22;7290;50.854;4.354;2022-10-16T03:24:38;15.10;99.90
14411;DHT22;7290;50.854;4.354;2022-10-16T03:27:04;15.10;99.90
14411;DHT22;7290;50.854;4.354;2022-10-16T03:29:32;15.10;99.90
14411;DHT22;7290;50.854;4.354;2022-10-16T03:31:59;15.10;99.90
14411;DHT22;7290;50.854;4.354;2022-10-16T03:34:25;15.10;99.90
14411;DHT22;7290;50.854;4.354;2022-10-16T03:36:52;15.00;99.90
14411;DHT22;7290;50.854;4.354;2022-10-16T03:39:18;14.90;99.90
14411;DHT22;7290;50.854;4.354;2022-10-16T03:41:45;15.00;99.90
14411;DHT22;7290;50.854;4.354;2022-10-16T03:44:12;15.00;99.90
14411;DHT22;7290;50.854;4.354;2022-10-16T03:46:38;15.10;99.90
14411;DHT22;7290;50.854;4.354;2022-10-16T03:49:04;15.10;99.90
14411;DHT22;7290;50.854;4.354;2022-10-16T03:51:31;15.10;99.90
14411;DHT22;7290;50.854;4.354;2022-10-16T03:53:57;15.10;99.90
14411;DHT22;7290;50.854;4.354;2022-10-16T03:56:23;15.10;99.90
14411;DHT22;7290;50.854;4.354;2022-10-16T03:58:50;15.00;99.90
14411;DHT22;7290;50.854;4.354;2022-10-16T04:01:16;15.10;99.90
14411;DHT22;7290;50.854;4.354;2022-10-16T04:03:45;15.20;99.90
14411;DHT22;7290;50.854;4.354;2022-10-16T04:06:11;15.10;99.90
14411;DHT22;7290;50.854;4.354;2022-10-16T04:08:42;15.10;99.90
14411;DHT22;7290;50.854;4.354;2022-10-16T04:11:10;15.00;99.90
14411;DHT22;7290;50.854;4.354;2022-10-16T04:13:36;15.00;99.90
14411;DHT22;7290;50.854;4.354;2022-10-16T04:16:04;15.00;99.90
14411;DHT22;7290;50.854;4.354;2022-10-16T04:18:30;15.00;99.90
14411;DHT22;7290;50.854;4.354;2022-10-16T04:20:56;15.00;99.90
14411;DHT22;7290;50.854;4.354;2022-10-16T04:23:22;15.00;99.90
14411;DHT22;7290;50.854;4.354;2022-10-16T04:25:49;15.00;99.90
14411;DHT22;7290;50.854;4.354;2022-10-16T04:28:15;14.90;99.90
14411;DHT22;7290;50.854;4.354;2022-10-16T04:30:41;14.90;99.90
14411;DHT22;7290;50.854;4.354;2022-10-16T04:33:09;14.90;99.90
14411;DHT22;7290;50.854;4.354;2022-10-16T04:35:35;14.80;99.90
14411;DHT22;7290;50.854;4.354;2022-10-16T04:38:02;14.80;99.90
14411;DHT22;7290;50.854;4.354;2022-10-16T04:40:28;14.90;99.90
14411;DHT22;7290;50.854;4.354;2022-10-16T04:42:54;14.90;99.90
14411;DHT22;7290;50.854;4.354;2022-10-16T04:45:20;14.80;99.90
14411;DHT22;7290;50.854;4.354;2022-10-16T04:47:46;14.80;99.90
14411;DHT22;7290;50.854;4.354;2022-10-16T04:50:15;14.80;99.90
14411;DHT22;7290;50.854;4.354;2022-10-16T04:52:41;14.80;99.90
14411;DHT22;7290;50.854;4.354;2022-10-16T04:55:07;14.80;99.90
14411;DHT22;7290;50.854;4.354;2022-10-16T04:57:33;14.80;99.90
14411;DHT22;7290;50.854;4.354;2022-10-16T05:00:00;14.80;99.90
14411;DHT22;7290;50.854;4.354;2022-10-16T05:02:26;14.80;99.90
14411;DHT22;7290;50.854;4.354;2022-10-16T05:04:52;14.80;99.90
14411;DHT22;7290;50.854;4.354;2022-10-16T05:07:20;14.70;99.90
14411;DHT22;7290;50.854;4.354;2022-10-16T05:09:46;14.80;99.90
14411;DHT22;7290;50.854;4.354;2022-10-16T05:12:12;14.70;99.90
14411;DHT22;7290;50.854;4.354;2022-10-16T05:14:38;14.70;99.90
14411;DHT22;7290;50.854;4.354;2022-10-16T05:17:04;14.70;99.90
14411;DHT22;7290;50.854;4.354;2022-10-16T05:19:30;14.70;99.90
14411;DHT22;7290;50.854;4.354;2022-10-16T05:21:56;14.70;99.90
14411;DHT22;7290;50.854;4.354;2022-10-16T05:24:23;14.70;99.90
14411;DHT22;7290;50.854;4.354;2022-10-16T05:26:53;14.70;99.90
14411;DHT22;7290;50.854;4.354;2022-10-16T05:29:19;14.70;99.90
14411;DHT22;7290;50.854;4.354;2022-10-16T05:31:46;14.70;99.90
14411;DHT22;7290;50.854;4.354;2022-10-16T05:34:12;14.70;99.90
14411;DHT22;7290;50.854;4.354;2022-10-16T05:36:38;14.70;99.90
14411;DHT22;7290;50.854;4.354;2022-10-16T05:39:05;14.60;99.90
14411;DHT22;7290;50.854;4.354;2022-10-16T05:41:33;14.50;99.90
14411;DHT22;7290;50.854;4.354;2022-10-16T05:43:59;14.50;99.90
14411;DHT22;7290;50.854;4.354;2022-10-16T05:46:25;14.50;99.90
14411;DHT22;7290;50.854;4.354;2022-10-16T05:48:52;14.60;99.90
14411;DHT22;7290;50.854;4.354;2022-10-16T05:51:18;14.60;99.90
14411;DHT22;7290;50.854;4.354;2022-10-16T05:53:44;14.60;99.90
14411;DHT22;7290;50.854;4.354;2022-10-16T05:56:11;14.60;99.90
14411;DHT22;7290;50.854;4.354;2022-10-16T05:58:39;14.60;99.90
14411;DHT22;7290;50.854;4.354;2022-10-16T06:01:09;14.60;99.90
14411;DHT22;7290;50.854;4.354;2022-10-16T06:03:35;14.60;99.90
14411;DHT22;7290;50.854;4.354;2022-10-16T06:06:08;14.50;99.90
14411;DHT22;7290;50.854;4.354;2022-10-16T06:08:34;14.50;99.90
14411;DHT22;7290;50.854;4.354;2022-10-16T06:11:01;14.60;99.90
14411;DHT22;7290;50.854;4.354;2022-10-16T06:13:29;14.60;99.90
14411;DHT22;7290;50.854;4.354;2022-10-16T06:15:58;14.60;99.90
14411;DHT22;7290;50.854;4.354;2022-10-16T06:18:25;14.50;99.90
14411;DHT22;7290;50.854;4.354;2022-10-16T06:20:51;14.50;99.90
14411;DHT22;7290;50.854;4.354;2022-10-16T06:23:17;14.60;99.90
14411;DHT22;7290;50.854;4.354;2022-10-16T06:25:43;14.60;99.90
14411;DHT22;7290;50.854;4.354;2022-10-16T06:28:09;14.60;99.90
14411;DHT22;7290;50.854;4.354;2022-10-16T06:30:36;14.70;99.90
14411;DHT22;7290;50.854;4.354;2022-10-16T06:33:05;14.70;99.90
14411;DHT22;7290;50.854;4.354;2022-10-16T06:35:31;14.60;99.90
14411;DHT22;7290;50.854;4.354;2022-10-16T06:37:57;14.70;99.90
14411;DHT22;7290;50.854;4.354;2022-10-16T06:40:23;14.80;99.90
14411;DHT22;7290;50.854;4.354;2022-10-16T06:42:50;14.80;99.90
14411;DHT22;7290;50.854;4.354;2022-10-16T06:45:17;14.80;99.90
14411;DHT22;7290;50.854;4.354;2022-10-16T06:47:43;14.80;99.90
14411;DHT22;7290;50.854;4.354;2022-10-16T06:50:10;14.90;99.90
14411;DHT22;7290;50.854;4.354;2022-10-16T06:52:36;15.10;99.90
14411;DHT22;7290;50.854;4.354;2022-10-16T06:55:04;15.20;99.90
14411;DHT22;7290;50.854;4.354;2022-10-16T06:57:31;15.20;99.90
14411;DHT22;7290;50.854;4.354;2022-10-16T06:59:57;15.20;99.90
14411;DHT22;7290;50.854;4.354;2022-10-16T07:02:23;15.20;99.90
14411;DHT22;7290;50.854;4.354;2022-10-16T07:04:49;15.30;99.90
14411;DHT22;7290;50.854;4.354;2022-10-16T07:07:16;15.20;99.90
14411;DHT22;7290;50.854;4.354;2022-10-16T07:09:43;15.10;99.90
14411;DHT22;7290;50.854;4.354;2022-10-16T07:12:09;15.10;99.90
14411;DHT22;7290;50.854;4.354;2022-10-16T07:14:35;15.00;99.90
14411;DHT22;7290;50.854;4.354;2022-10-16T07:17:02;14.90;99.90
14411;DHT22;7290;50.854;4.354;2022-10-16T07:19:31;14.90;99.90
14411;DHT22;7290;50.854;4.354;2022-10-16T07:21:57;14.90;99.90
14411;DHT22;7290;50.854;4.354;2022-10-16T07:24:24;14.90;99.90
14411;DHT22;7290;50.854;4.354;2022-10-16T07:26:50;14.80;99.90
14411;DHT22;7290;50.854;4.354;2022-10-16T07:29:19;14.90;99.90
14411;DHT22;7290;50.854;4.354;2022-10-16T07:31:45;14.90;99.90
14411;DHT22;7290;50.854;4.354;2022-10-16T07:34:13;14.90;99.90
14411;DHT22;7290;50.854;4.354;2022-10-16T07:36:40;14.90;99.90
14411;DHT22;7290;50.854;4.354;2022-10-16T07:39:06;14.90;99.90
14411;DHT22;7290;50.854;4.354;2022-10-16T07:41:32;14.80;99.90
14411;DHT22;7290;50.854;4.354;2022-10-16T07:44:02;14.90;99.90
14411;DHT22;7290;50.854;4.354;2022-10-16T07:46:29;15.00;99.90
14411;DHT22;7290;50.854;4.354;2022-10-16T07:48:56;15.00;99.90
14411;DHT22;7290;50.854;4.354;2022-10-16T07:51:24;15.00;99.90
14411;DHT22;7290;50.854;4.354;2022-10-16T07:53:51;15.00;99.90
14411;DHT22;7290;50.854;4.354;2022-10-16T07:56:19;15.00;99.90
14411;DHT22;7290;50.854;4.354;2022-10-16T07:58:46;15.10;99.90
14411;DHT22;7290;50.854;4.354;2022-10-16T08:01:14;15.10;99.90
14411;DHT22;7290;50.854;4.354;2022-10-16T08:03:41;15.10;99.90
14411;DHT22;7290;50.854;4.354;2022-10-16T08:06:08;15.10;99.90
14411;DHT22;7290;50.854;4.354;2022-10-16T08:08:34;15.20;99.90
14411;DHT22;7290;50.854;4.354;2022-10-16T08:11:00;15.20;99.90
14411;DHT22;7290;50.854;4.354;2022-10-16T08:13:29;15.30;99.90
14411;DHT22;7290;50.854;4.354;2022-10-16T08:15:56;15.30;99.90
14411;DHT22;7290;50.854;4.354;2022-10-16T08:18:22;15.30;99.90
14411;DHT22;7290;50.854;4.354;2022-10-16T08:20:55;15.30;99.90
14411;DHT22;7290;50.854;4.354;2022-10-16T08:23:21;15.30;99.90
14411;DHT22;7290;50.854;4.354;2022-10-16T08:25:47;15.30;99.90
14411;DHT22;7290;50.854;4.354;2022-10-16T08:28:13;15.30;99.90
14411;DHT22;7290;50.854;4.354;2022-10-16T08:30:39;15.30;99.90
14411;DHT22;7290;50.854;4.354;2022-10-16T08:33:06;15.40;99.90
14411;DHT22;7290;50.854;4.354;2022-10-16T08:35:32;15.50;99.90
14411;DHT22;7290;50.854;4.354;2022-10-16T08:37:59;15.50;99.90
14411;DHT22;7290;50.854;4.354;2022-10-16T08:40:27;15.50;99.90
14411;DHT22;7290;50.854;4.354;2022-10-16T08:43:11;15.50;99.90
14411;DHT22;7290;50.854;4.354;2022-10-16T08:45:57;15.60;99.90
14411;DHT22;7290;50.854;4.354;2022-10-16T08:48:30;15.60;99.90
14411;DHT22;7290;50.854;4.354;2022-10-16T08:50:58;15.60;99.90
14411;DHT22;7290;50.854;4.354;2022-10-16T08:53:30;15.70;99.90
14411;DHT22;7290;50.854;4.354;2022-10-16T08:55:57;15.70;99.90
14411;DHT22;7290;50.854;4.354;2022-10-16T08:58:27;15.70;99.90
14411;DHT22;7290;50.854;4.354;2022-10-16T09:00:55;15.80;99.90
14411;DHT22;7290;50.854;4.354;2022-10-16T09:03:38;15.90;99.90
14411;DHT22;7290;50.854;4.354;2022-10-16T09:06:19;15.90;99.90
14411;DHT22;7290;50.854;4.354;2022-10-16T09:08:57;16.00;99.90
14411;DHT22;7290;50.854;4.354;2022-10-16T09:11:38;15.90;99.90
14411;DHT22;7290;50.854;4.354;2022-10-16T09:14:31;16.00;99.90
14411;DHT22;7290;50.854;4.354;2022-10-16T09:17:12;16.00;99.90
14411;DHT22;7290;50.854;4.354;2022-10-16T09:19:46;16.10;99.90
14411;DHT22;7290;50.854;4.354;2022-10-16T09:22:15;16.10;99.90
14411;DHT22;7290;50.854;4.354;2022-10-16T09:24:42;16.20;99.90
14411;DHT22;7290;50.854;4.354;2022-10-16T09:27:10;16.20;99.90
14411;DHT22;7290;50.854;4.354;2022-10-16T09:29:37;16.30;99.90
14411;DHT22;7290;50.854;4.354;2022-10-16T09:32:10;16.50;99.90
14411;DHT22;7290;50.854;4.354;2022-10-16T09:34:41;16.60;99.90
14411;DHT22;7290;50.854;4.354;2022-10-16T09:37:13;16.70;99.90
14411;DHT22;7290;50.854;4.354;2022-10-16T09:39:47;17.00;99.90
14411;DHT22;7290;50.854;4.354;2022-10-16T09:42:16;18.30;99.90
14411;DHT22;7290;50.854;4.354;2022-10-16T09:44:47;20.10;99.90
14411;DHT22;7290;50.854;4.354;2022-10-16T09:47:17;21.70;99.90
14411;DHT22;7290;50.854;4.354;2022-10-16T09:49:52;23.10;99.90
14411;DHT22;7290;50.854;4.354;2022-10-16T09:52:19;23.90;99.90
14411;DHT22;7290;50.854;4.354;2022-10-16T09:54:51;24.60;99.90
14411;DHT22;7290;50.854;4.354;2022-10-16T09:57:17;25.20;99.90
14411;DHT22;7290;50.854;4.354;2022-10-16T09:59:46;25.50;99.90
14411;DHT22;7290;50.854;4.354;2022-10-16T10:02:15;25.40;99.90
14411;DHT22;7290;50.854;4.354;2022-10-16T10:04:48;25.70;99.90
14411;DHT22;7290;50.854;4.354;2022-10-16T10:07:21;25.20;99.90
14411;DHT22;7290;50.854;4.354;2022-10-16T10:09:49;25.40;99.90
14411;DHT22;7290;50.854;4.354;2022-10-16T10:12:19;24.50;99.90
14411;DHT22;7290;50.854;4.354;2022-10-16T10:14:47;24.20;99.90
14411;DHT22;7290;50.854;4.354;2022-10-16T10:17:16;24.40;99.90
14411;DHT22;7290;50.854;4.354;2022-10-16T10:19:48;25.20;99.90
14411;DHT22;7290;50.854;4.354;2022-10-16T10:22:39;26.50;99.90
14411;DHT22;7290;50.854;4.354;2022-10-16T10:25:26;27.20;99.00
14411;DHT22;7290;50.854;4.354;2022-10-16T10:28:09;27.90;97.80
14411;DHT22;7290;50.854;4.354;2022-10-16T10:30:44;27.00;97.70
14411;DHT22;7290;50.854;4.354;2022-10-16T10:33:21;26.90;98.40
14411;DHT22;7290;50.854;4.354;2022-10-16T10:35:56;27.30;97.50
14411;DHT22;7290;50.854;4.354;2022-10-16T10:38:34;27.20;97.70
14411;DHT22;7290;50.854;4.354;2022-10-16T10:41:15;26.70;98.30
14411;DHT22;7290;50.854;4.354;2022-10-16T10:43:54;26.80;98.40
14411;DHT22;7290;50.854;4.354;2022-10-16T10:46:32;27.00;98.10
14411;DHT22;7290;50.854;4.354;2022-10-16T10:49:15;27.20;97.60
14411;DHT22;7290;50.854;4.354;2022-10-16T10:51:53;27.50;97.10
14411;DHT22;7290;50.854;4.354;2022-10-16T10:54:26;27.60;96.50
14411;DHT22;7290;50.854;4.354;2022-10-16T10:56:58;25.80;98.60
14411;DHT22;7290;50.854;4.354;2022-10-16T10:59:40;25.00;99.90
14411;DHT22;7290;50.854;4.354;2022-10-16T11:02:15;24.30;99.90
14411;DHT22;7290;50.854;4.354;2022-10-16T11:05:14;25.00;99.90
14411;DHT22;7290;50.854;4.354;2022-10-16T11:07:48;24.20;99.90
14411;DHT22;7290;50.854;4.354;2022-10-16T11:10:20;24.30;99.90
14411;DHT22;7290;50.854;4.354;2022-10-16T11:12:52;25.90;99.50
14411;DHT22;7290;50.854;4.354;2022-10-16T11:15:23;26.50;98.10
14411;DHT22;7290;50.854;4.354;2022-10-16T11:17:54;26.60;97.70
14411;DHT22;7290;50.854;4.354;2022-10-16T11:20:25;27.00;97.40
14411;DHT22;7290;50.854;4.354;2022-10-16T11:22:55;27.40;96.80
14411;DHT22;7290;50.854;4.354;2022-10-16T11:25:26;27.30;96.20
14411;DHT22;7290;50.854;4.354;2022-10-16T11:27:56;27.30;96.30
14411;DHT22;7290;50.854;4.354;2022-10-16T11:30:26;26.10;96.80
14411;DHT22;7290;50.854;4.354;2022-10-16T11:33:02;25.20;98.40
14411;DHT22;7290;50.854;4.354;2022-10-16T11:35:37;24.70;99.60
14411;DHT22;7290;50.854;4.354;2022-10-16T11:38:11;25.20;99.50
14411;DHT22;7290;50.854;4.354;2022-10-16T11:40:41;26.20;98.60
14411;DHT22;7290;50.854;4.354;2022-10-16T11:43:14;26.90;97.40
14411;DHT22;7290;50.854;4.354;2022-10-16T11:45:44;26.70;97.10
14411;DHT22;7290;50.854;4.354;2022-10-16T11:48:18;26.00;98.00
14411;DHT22;7290;50.854;4.354;2022-10-16T11:50:51;24.70;99.50
14411;DHT22;7290;50.854;4.354;2022-10-16T11:53:32;24.00;99.90
14411;DHT22;7290;50.854;4.354;2022-10-16T11:56:01;23.50;99.90
14411;DHT22;7290;50.854;4.354;2022-10-16T11:58:31;22.90;99.90
14411;DHT22;7290;50.854;4.354;2022-10-16T12:01:12;22.80;99.90
14411;DHT22;7290;50.854;4.354;2022-10-16T12:03:43;22.90;99.90
14411;DHT22;7290;50.854;4.354;2022-10-16T12:06:26;22.80;99.90
14411;DHT22;7290;50.854;4.354;2022-10-16T12:08:56;22.80;99.90
14411;DHT22;7290;50.854;4.354;2022-10-16T12:11:34;22.70;99.90
14411;DHT22;7290;50.854;4.354;2022-10-16T12:14:20;22.40;99.90
14411;DHT22;7290;50.854;4.354;2022-10-16T12:16:55;22.70;99.90
14411;DHT22;7290;50.854;4.354;2022-10-16T12:19:23;22.80;99.90
14411;DHT22;7290;50.854;4.354;2022-10-16T12:21:50;23.10;99.90
14411;DHT22;7290;50.854;4.354;2022-10-16T12:24:26;22.70;99.90
14411;DHT22;7290;50.854;4.354;2022-10-16T12:26:54;22.30;99.90
14411;DHT22;7290;50.854;4.354;2022-10-16T12:29:27;22.20;99.90
14411;DHT22;7290;50.854;4.354;2022-10-16T12:31:54;22.10;99.90
14411;DHT22;7290;50.854;4.354;2022-10-16T12:34:23;21.90;99.90
14411;DHT22;7290;50.854;4.354;2022-10-16T12:36:52;21.80;99.90
14411;DHT22;7290;50.854;4.354;2022-10-16T12:39:23;22.00;99.90
14411;DHT22;7290;50.854;4.354;2022-10-16T12:42:02;22.10;99.90
14411;DHT22;7290;50.854;4.354;2022-10-16T12:44:38;22.00;99.90
14411;DHT22;7290;50.854;4.354;2022-10-16T12:47:04;21.70;99.90
14411;DHT22;7290;50.854;4.354;2022-10-16T12:49:37;21.70;99.90
14411;DHT22;7290;50.854;4.354;2022-10-16T12:52:03;21.50;99.90
14411;DHT22;7290;50.854;4.354;2022-10-16T12:54:34;21.50;99.90
14411;DHT22;7290;50.854;4.354;2022-10-16T12:57:26;21.60;99.90
14411;DHT22;7290;50.854;4.354;2022-10-16T13:00:01;21.90;99.90
14411;DHT22;7290;50.854;4.354;2022-10-16T13:02:48;21.80;99.90
14411;DHT22;7290;50.854;4.354;2022-10-16T13:05:26;21.80;99.90
14411;DHT22;7290;50.854;4.354;2022-10-16T13:08:04;22.20;99.90
14411;DHT22;7290;50.854;4.354;2022-10-16T13:10:36;22.60;99.90
14411;DHT22;7290;50.854;4.354;2022-10-16T13:13:20;22.90;99.90
14411;DHT22;7290;50.854;4.354;2022-10-16T13:16:10;22.30;99.90
14411;DHT22;7290;50.854;4.354;2022-10-16T13:18:48;22.10;99.90
14411;DHT22;7290;50.854;4.354;2022-10-16T13:21:32;21.70;99.90
14411;DHT22;7290;50.854;4.354;2022-10-16T13:24:18;21.10;99.90
14411;DHT22;7290;50.854;4.354;2022-10-16T13:26:53;21.40;99.90
14411;DHT22;7290;50.854;4.354;2022-10-16T13:29:22;21.40;99.90
14411;DHT22;7290;50.854;4.354;2022-10-16T13:31:49;21.40;99.90
14411;DHT22;7290;50.854;4.354;2022-10-16T13:34:18;21.60;99.90
14411;DHT22;7290;50.854;4.354;2022-10-16T13:36:48;21.90;99.90
14411;DHT22;7290;50.854;4.354;2022-10-16T13:39:22;21.80;99.90
14411;DHT22;7290;50.854;4.354;2022-10-16T13:42:01;21.60;99.90
14411;DHT22;7290;50.854;4.354;2022-10-16T13:44:34;21.00;99.90
14411;DHT22;7290;50.854;4.354;2022-10-16T13:47:03;20.80;99.90
14411;DHT22;7290;50.854;4.354;2022-10-16T13:49:29;20.60;99.90
14411;DHT22;7290;50.854;4.354;2022-10-16T13:51:56;20.60;99.90
14411;DHT22;7290;50.854;4.354;2022-10-16T13:54:23;20.80;99.90
14411;DHT22;7290;50.854;4.354;2022-10-16T13:56:49;21.00;99.90
14411;DHT22;7290;50.854;4.354;2022-10-16T13:59:27;21.00;99.90
14411;DHT22;7290;50.854;4.354;2022-10-16T14:02:00;20.90;99.90
14411;DHT22;7290;50.854;4.354;2022-10-16T14:04:33;20.60;99.90
14411;DHT22;7290;50.854;4.354;2022-10-16T14:07:01;20.90;99.90
14411;DHT22;7290;50.854;4.354;2022-10-16T14:09:29;21.00;99.90
14411;DHT22;7290;50.854;4.354;2022-10-16T14:11:58;20.80;99.90
14411;DHT22;7290;50.854;4.354;2022-10-16T14:14:39;20.80;99.90
14411;DHT22;7290;50.854;4.354;2022-10-16T14:17:14;20.90;99.90
14411;DHT22;7290;50.854;4.354;2022-10-16T14:19:40;20.70;99.90
14411;DHT22;7290;50.854;4.354;2022-10-16T14:22:29;20.50;99.90
14411;DHT22;7290;50.854;4.354;2022-10-16T14:24:56;20.40;99.90
14411;DHT22;7290;50.854;4.354;2022-10-16T14:27:27;20.60;99.90
14411;DHT22;7290;50.854;4.354;2022-10-16T14:30:12;20.90;99.90
14411;DHT22;7290;50.854;4.354;2022-10-16T14:32:41;21.00;99.90
14411;DHT22;7290;50.854;4.354;2022-10-16T14:35:23;20.60;99.90
14411;DHT22;7290;50.854;4.354;2022-10-16T14:37:52;20.70;99.90
14411;DHT22;7290;50.854;4.354;2022-10-16T14:40:18;20.80;99.90
14411;DHT22;7290;50.854;4.354;2022-10-16T14:42:45;20.70;99.90
14411;DHT22;7290;50.854;4.354;2022-10-16T14:45:12;20.70;99.90
14411;DHT22;7290;50.854;4.354;2022-10-16T14:47:49;20.70;99.90
14411;DHT22;7290;50.854;4.354;2022-10-16T14:50:15;20.70;99.90
14411;DHT22;7290;50.854;4.354;2022-10-16T14:52:41;20.40;99.90
14411;DHT22;7290;50.854;4.354;2022-10-16T14:55:09;20.20;99.90
14411;DHT22;7290;50.854;4.354;2022-10-16T14:57:37;20.20;99.90
14411;DHT22;7290;50.854;4.354;2022-10-16T15:00:13;20.40;99.90
14411;DHT22;7290;50.854;4.354;2022-10-16T15:02:42;20.20;99.90
14411;DHT22;7290;50.854;4.354;2022-10-16T15:05:13;20.20;99.90
14411;DHT22;7290;50.854;4.354;2022-10-16T15:07:40;20.40;99.90
14411;DHT22;7290;50.854;4.354;2022-10-16T15:10:07;20.40;99.90
14411;DHT22;7290;50.854;4.354;2022-10-16T15:12:34;20.70;99.90
14411;DHT22;7290;50.854;4.354;2022-10-16T15:15:00;20.90;99.90
14411;DHT22;7290;50.854;4.354;2022-10-16T15:17:27;20.50;99.90
14411;DHT22;7290;50.854;4.354;2022-10-16T15:19:53;20.20;99.90
14411;DHT22;7290;50.854;4.354;2022-10-16T15:22:20;20.30;99.90
14411;DHT22;7290;50.854;4.354;2022-10-16T15:24:48;20.20;99.90
14411;DHT22;7290;50.854;4.354;2022-10-16T15:27:15;20.10;99.90
14411;DHT22;7290;50.854;4.354;2022-10-16T15:29:41;20.00;99.90
14411;DHT22;7290;50.854;4.354;2022-10-16T15:32:09;20.00;99.90
14411;DHT22;7290;50.854;4.354;2022-10-16T15:34:36;20.00;99.90
14411;DHT22;7290;50.854;4.354;2022-10-16T15:37:03;20.00;99.90
14411;DHT22;7290;50.854;4.354;2022-10-16T15:39:29;20.20;99.90
14411;DHT22;7290;50.854;4.354;2022-10-16T15:41:56;20.20;99.90
14411;DHT22;7290;50.854;4.354;2022-10-16T15:44:22;20.20;99.90
14411;DHT22;7290;50.854;4.354;2022-10-16T15:46:48;20.30;99.90
14411;DHT22;7290;50.854;4.354;2022-10-16T15:49:15;20.30;99.90
14411;DHT22;7290;50.854;4.354;2022-10-16T15:51:42;20.20;99.90
14411;DHT22;7290;50.854;4.354;2022-10-16T15:54:08;20.10;99.90
14411;DHT22;7290;50.854;4.354;2022-10-16T15:56:37;19.80;99.90
14411;DHT22;7290;50.854;4.354;2022-10-16T15:59:03;19.70;99.90
14411;DHT22;7290;50.854;4.354;2022-10-16T16:01:32;19.80;99.90